createdAt,value
2022-10-13T00:00:25.297Z,8.90
2022-10-13T00:02:53.235Z,8.92
2022-10-13T00:05:21.398Z,8.94
2022-10-13T00:07:49.356Z,8.92
2022-10-13T00:10:17.323Z,8.96
2022-10-13T00:12:46.606Z,8.96
2022-10-13T00:15:16.210Z,8.95
2022-10-13T00:17:44.215Z,8.97
2022-10-13T00:20:13.112Z,8.97
2022-10-13T00:22:41.085Z,9.00
2022-10-13T00:25:09.932Z,9.05
2022-10-13T00:27:58.738Z,8.28
2022-10-13T00:30:35.116Z,9.23
2022-10-13T00:33:03.040Z,9.26
2022-10-13T00:35:31.103Z,9.35
2022-10-13T00:37:59.053Z,9.39
2022-10-13T00:40:31.101Z,9.47
2022-10-13T00:43:00.450Z,9.51
2022-10-13T00:45:29.834Z,9.57
2022-10-13T00:47:59.904Z,9.62
2022-10-13T00:50:32.930Z,9.65
2022-10-13T00:53:05.651Z,9.72
2022-10-13T00:55:37.985Z,9.74
2022-10-13T00:58:11.665Z,9.77
2022-10-13T01:00:39.803Z,9.78
2022-10-13T01:03:07.758Z,9.81
2022-10-13T01:05:36.715Z,9.80
2022-10-13T01:08:05.253Z,9.81
2022-10-13T01:10:51.504Z,9.82
2022-10-13T01:13:28.034Z,9.84
2022-10-13T01:16:06.110Z,9.85
2022-10-13T01:18:43.655Z,9.85
2022-10-13T01:21:26.061Z,9.83
2022-10-13T01:24:18.007Z,9.82
2022-10-13T01:27:04.783Z,9.81
2022-10-13T01:30:08.554Z,9.81
2022-10-13T01:33:04.389Z,9.77
2022-10-13T01:35:45.329Z,9.70
2022-10-13T01:38:23.186Z,9.72
2022-10-13T01:41:00.498Z,9.69
2022-10-13T01:43:32.030Z,9.70
2022-10-13T01:46:04.775Z,9.63
2022-10-13T01:48:36.819Z,9.61
2022-10-13T01:51:08.286Z,9.57
2022-10-13T01:53:37.069Z,9.55
2022-10-13T01:56:05.512Z,9.55
2022-10-13T01:58:36.601Z,9.53
2022-10-13T02:01:14.018Z,9.54
2022-10-13T02:03:54.142Z,9.54
2022-10-13T02:06:26.627Z,9.60
2022-10-13T02:09:00.542Z,9.59
2022-10-13T02:11:29.609Z,9.60
2022-10-13T02:14:03.064Z,9.64
2022-10-13T02:16:35.248Z,9.69
2022-10-13T02:19:06.321Z,9.73
2022-10-13T02:21:35.691Z,9.76
2022-10-13T02:24:04.742Z,9.74
2022-10-13T02:26:33.975Z,9.78
2022-10-13T02:29:11.677Z,9.77
2022-10-13T02:31:41.041Z,9.77
2022-10-13T02:34:10.748Z,9.77
2022-10-13T02:36:39.813Z,9.73
2022-10-13T02:39:08.708Z,9.73
2022-10-13T02:41:36.714Z,9.70
2022-10-13T02:44:05.018Z,9.67
2022-10-13T02:46:41.791Z,9.65
2022-10-13T02:49:12.242Z,9.62
2022-10-13T02:51:40.723Z,9.59
2022-10-13T02:54:08.819Z,9.57
2022-10-13T02:56:36.760Z,9.59
2022-10-13T02:59:04.919Z,9.56
2022-10-13T03:01:32.967Z,9.50
2022-10-13T03:04:00.909Z,9.41
2022-10-13T03:06:30.205Z,9.34
2022-10-13T03:08:58.130Z,9.38
2022-10-13T03:11:26.178Z,9.41
2022-10-13T03:13:54.226Z,9.46
2022-10-13T03:16:22.167Z,9.53
2022-10-13T03:18:50.074Z,9.52
2022-10-13T03:21:18.236Z,9.56
2022-10-13T03:23:47.607Z,9.59
2022-10-13T03:26:16.259Z,9.65
2022-10-13T03:28:44.221Z,9.72
2022-10-13T03:31:13.094Z,9.86
2022-10-13T03:33:41.379Z,9.84
2022-10-13T03:36:09.724Z,9.87
2022-10-13T03:38:39.048Z,9.91
2022-10-13T03:41:13.220Z,9.92
2022-10-13T03:43:42.359Z,9.89
2022-10-13T03:46:12.859Z,9.92
2022-10-13T03:48:42.700Z,9.95
2022-10-13T03:51:12.040Z,9.97
2022-10-13T03:53:46.497Z,9.97
2022-10-13T03:56:19.068Z,10.02
2022-10-13T03:58:54.224Z,10.03
2022-10-13T04:01:23.318Z,10.05
2022-10-13T04:03:52.682Z,10.05
2022-10-13T04:06:20.727Z,10.07
2022-10-13T04:08:49.537Z,10.09
2022-10-13T04:11:19.999Z,10.11
2022-10-13T04:13:52.406Z,10.10
2022-10-13T04:16:21.931Z,10.08
2022-10-13T04:18:53.303Z,10.14
2022-10-13T04:21:21.459Z,10.13
2022-10-13T04:23:49.374Z,10.14
2022-10-13T04:26:21.923Z,10.14
2022-10-13T04:28:51.834Z,10.14
2022-10-13T04:31:22.009Z,10.15
2022-10-13T04:33:50.444Z,10.17
2022-10-13T04:36:19.444Z,10.18
2022-10-13T04:38:51.170Z,10.17
2022-10-13T04:41:20.940Z,10.15
2022-10-13T04:43:49.923Z,10.15
2022-10-13T04:46:20.609Z,10.15
2022-10-13T04:48:49.920Z,10.07
2022-10-13T04:51:20.293Z,10.09
2022-10-13T04:54:05.523Z,10.11
2022-10-13T04:56:35.185Z,10.04
2022-10-13T04:59:05.243Z,10.11
2022-10-13T05:01:34.403Z,10.16
2022-10-13T05:04:05.209Z,10.16
2022-10-13T05:06:53.400Z,10.17
2022-10-13T05:09:27.322Z,10.18
2022-10-13T05:11:57.274Z,10.21
2022-10-13T05:14:25.641Z,10.24
2022-10-13T05:16:53.686Z,10.21
2022-10-13T05:19:21.712Z,10.21
2022-10-13T05:21:50.527Z,10.18
2022-10-13T05:24:20.719Z,10.17
2022-10-13T05:26:50.639Z,10.16
2022-10-13T05:29:19.921Z,10.15
2022-10-13T05:31:48.368Z,10.16
2022-10-13T05:34:16.347Z,10.11
2022-10-13T05:36:44.342Z,10.23
2022-10-13T05:39:13.085Z,10.21
2022-10-13T05:41:41.095Z,10.23
2022-10-13T05:44:16.604Z,10.28
2022-10-13T05:46:55.906Z,10.33
2022-10-13T05:49:23.875Z,10.32
2022-10-13T05:51:54.532Z,10.37
2022-10-13T05:54:30.570Z,10.41
2022-10-13T05:57:02.756Z,10.37
2022-10-13T05:59:35.328Z,10.43
2022-10-13T06:02:07.421Z,10.47
2022-10-13T06:04:38.938Z,10.52
2022-10-13T06:07:07.477Z,10.57
2022-10-13T06:09:38.793Z,10.60
2022-10-13T06:12:07.433Z,10.61
2022-10-13T06:14:35.437Z,10.68
2022-10-13T06:17:09.130Z,10.72
2022-10-13T06:19:38.423Z,10.79
2022-10-13T06:22:09.450Z,10.83
2022-10-13T06:24:37.420Z,10.86
2022-10-13T06:27:08.258Z,10.94
2022-10-13T06:29:37.589Z,10.76
2022-10-13T06:32:06.325Z,11.01
2022-10-13T06:34:35.611Z,11.11
2022-10-13T06:37:03.552Z,11.11
2022-10-13T06:39:31.507Z,11.18
2022-10-13T06:42:03.442Z,11.23
2022-10-13T06:44:32.649Z,11.19
2022-10-13T06:47:03.695Z,11.29
2022-10-13T06:49:31.617Z,11.36
2022-10-13T06:52:00.929Z,11.41
2022-10-13T06:54:28.966Z,11.40
2022-10-13T06:56:57.067Z,11.48
2022-10-13T06:59:26.407Z,11.54
2022-10-13T07:01:54.527Z,11.58
2022-10-13T07:04:23.504Z,11.66
2022-10-13T07:06:52.654Z,11.63
2022-10-13T07:09:21.966Z,11.72
2022-10-13T07:11:50.178Z,11.84
2022-10-13T07:14:18.103Z,11.79
2022-10-13T07:16:46.082Z,11.86
2022-10-13T07:19:13.984Z,11.92
2022-10-13T07:21:42.733Z,11.92
2022-10-13T07:24:12.277Z,12.07
2022-10-13T07:26:41.640Z,12.18
2022-10-13T07:29:10.326Z,12.34
2022-10-13T07:31:38.358Z,12.49
2022-10-13T07:34:06.710Z,12.67
2022-10-13T07:36:35.466Z,12.87
2022-10-13T07:39:04.485Z,12.87
2022-10-13T07:41:32.508Z,13.10
2022-10-13T07:44:01.866Z,13.13
2022-10-13T07:46:30.018Z,13.28
2022-10-13T07:48:58.060Z,13.69
2022-10-13T07:51:26.080Z,13.76
2022-10-13T07:53:54.054Z,13.81
2022-10-13T07:56:21.991Z,13.81
2022-10-13T07:58:49.885Z,13.79
2022-10-13T08:01:19.407Z,13.77
2022-10-13T08:03:50.355Z,13.82
2022-10-13T08:06:19.759Z,13.77
2022-10-13T08:08:48.430Z,13.75
2022-10-13T08:11:18.595Z,13.84
2022-10-13T08:13:50.111Z,13.81
2022-10-13T08:16:24.008Z,14.12
2022-10-13T08:18:52.901Z,14.46
2022-10-13T08:21:52.825Z,14.73
2022-10-13T08:24:13.888Z,15.59
2022-10-13T08:26:43.260Z,17.43
2022-10-13T08:29:26.796Z,18.24
2022-10-13T08:31:57.067Z,17.84
2022-10-13T08:34:38.041Z,16.54
2022-10-13T08:37:07.094Z,16.87
2022-10-13T08:39:37.592Z,16.40
2022-10-13T08:42:15.680Z,16.63
2022-10-13T08:47:44.393Z,16.13
2022-10-13T08:50:17.058Z,15.76
2022-10-13T08:52:49.990Z,15.50
2022-10-13T08:55:24.747Z,15.53
2022-10-13T08:57:53.008Z,15.51
2022-10-13T09:00:27.387Z,15.26
2022-10-13T09:03:02.769Z,15.39
2022-10-13T09:05:38.800Z,15.52
2022-10-13T09:08:49.820Z,15.47
2022-10-13T09:11:29.804Z,15.94
2022-10-13T09:14:00.267Z,16.22
2022-10-13T09:16:30.797Z,17.09
2022-10-13T09:19:18.827Z,16.99
2022-10-13T09:21:47.096Z,17.19
2022-10-13T09:24:20.889Z,18.98
2022-10-13T09:26:52.900Z,20.65
2022-10-13T09:29:25.302Z,18.07
2022-10-13T09:32:09.134Z,17.09
2022-10-13T09:34:38.664Z,16.94
2022-10-13T09:37:08.338Z,16.93
2022-10-13T09:39:36.491Z,17.28
2022-10-13T09:42:22.247Z,18.94
2022-10-13T09:44:58.740Z,19.83
2022-10-13T09:47:29.601Z,20.75
2022-10-13T09:50:07.323Z,20.07
2022-10-13T09:52:36.320Z,19.35
2022-10-13T09:55:27.577Z,19.51
2022-10-13T09:58:07.645Z,19.35
2022-10-13T10:00:37.474Z,19.07
2022-10-13T10:03:11.973Z,18.71
2022-10-13T10:05:50.359Z,19.75
2022-10-13T10:08:33.735Z,20.44
2022-10-13T10:11:14.806Z,20.77
2022-10-13T10:13:42.777Z,21.69
2022-10-13T10:16:15.541Z,21.49
2022-10-13T10:18:49.340Z,20.26
2022-10-13T10:21:28.466Z,19.41
2022-10-13T10:24:02.165Z,19.29
2022-10-13T10:26:42.637Z,19.23
2022-10-13T10:29:23.328Z,19.37
2022-10-13T10:32:04.110Z,19.97
2022-10-13T10:34:43.537Z,19.76
2022-10-13T10:37:22.785Z,19.89
2022-10-13T10:40:04.223Z,20.20
2022-10-13T10:42:56.601Z,20.46
2022-10-13T10:45:28.206Z,20.85
2022-10-13T10:48:00.793Z,20.26
2022-10-13T10:50:31.940Z,21.67
2022-10-13T10:53:05.367Z,21.11
2022-10-13T10:55:43.930Z,21.25
2022-10-13T10:58:23.444Z,21.22
2022-10-13T11:00:56.691Z,22.64
2022-10-13T11:03:39.247Z,23.29
2022-10-13T11:06:23.971Z,24.82
2022-10-13T11:08:55.254Z,23.23
2022-10-13T11:11:38.322Z,22.18
2022-10-13T11:14:31.460Z,21.39
2022-10-13T11:17:21.202Z,21.17
2022-10-13T11:19:49.975Z,21.44
2022-10-13T11:22:23.947Z,21.07
2022-10-13T11:24:56.855Z,20.51
2022-10-13T11:27:39.017Z,20.04
2022-10-13T11:30:47.557Z,19.79
2022-10-13T11:33:36.580Z,19.44
2022-10-13T11:36:33.891Z,19.81
2022-10-13T11:39:08.108Z,20.14
2022-10-13T11:41:47.130Z,22.17
2022-10-13T11:44:22.781Z,22.18
2022-10-13T11:47:05.602Z,23.44
2022-10-13T11:49:50.932Z,24.18
2022-10-13T11:52:31.935Z,24.49
2022-10-13T11:55:06.258Z,23.73
2022-10-13T11:57:35.600Z,22.69
2022-10-13T12:00:05.484Z,21.92
2022-10-13T12:02:50.438Z,21.41
2022-10-13T12:05:24.626Z,20.91
2022-10-13T12:07:54.928Z,20.35
2022-10-13T12:10:30.887Z,19.63
2022-10-13T12:13:04.290Z,19.85
2022-10-13T12:15:36.273Z,20.04
2022-10-13T12:18:38.880Z,20.24
2022-10-13T12:21:23.081Z,20.21
2022-10-13T12:23:52.680Z,20.13
2022-10-13T12:26:22.746Z,20.21
2022-10-13T12:28:56.296Z,20.52
2022-10-13T12:31:37.640Z,20.47
2022-10-13T12:34:18.450Z,20.65
2022-10-13T12:39:21.317Z,20.61
2022-10-13T12:41:50.465Z,20.65
2022-10-13T12:44:22.989Z,20.21
2022-10-13T12:46:53.154Z,19.99
2022-10-13T12:49:23.957Z,19.89
2022-10-13T12:51:55.635Z,20.25
2022-10-13T12:54:27.171Z,20.19
2022-10-13T12:56:58.810Z,20.13
2022-10-13T12:59:30.090Z,20.17
2022-10-13T13:02:01.181Z,19.76
2022-10-13T13:04:42.256Z,19.67
2022-10-13T13:07:38.228Z,19.56
2022-10-13T13:10:18.368Z,19.26
2022-10-13T13:12:46.971Z,19.54
2022-10-13T13:15:34.395Z,19.27
2022-10-13T13:18:31.445Z,19.26
2022-10-13T13:21:01.793Z,19.16
2022-10-13T13:23:34.189Z,18.96
2022-10-13T13:26:12.211Z,18.88
2022-10-13T13:28:43.704Z,19.24
2022-10-13T13:31:14.075Z,19.19
2022-10-13T13:33:42.220Z,19.02
2022-10-13T13:36:16.858Z,19.16
2022-10-13T13:38:47.742Z,18.97
2022-10-13T13:41:16.903Z,18.97
2022-10-13T13:43:45.185Z,18.95
2022-10-13T13:46:19.130Z,18.96
2022-10-13T13:48:47.218Z,19.01
2022-10-13T13:51:16.083Z,19.04
2022-10-13T13:53:45.554Z,18.95
2022-10-13T13:56:15.046Z,18.76
2022-10-13T13:58:43.190Z,18.79
2022-10-13T14:01:11.794Z,18.70
2022-10-13T14:03:41.629Z,18.80
2022-10-13T14:06:10.071Z,18.87
2022-10-13T14:08:42.316Z,18.66
2022-10-13T14:11:11.616Z,18.64
2022-10-13T14:13:39.753Z,18.60
2022-10-13T14:16:08.365Z,18.49
2022-10-13T14:18:36.323Z,18.62
2022-10-13T14:21:10.953Z,18.73
2022-10-13T14:23:39.783Z,18.65
2022-10-13T14:26:09.150Z,18.57
2022-10-13T14:28:37.408Z,18.84
2022-10-13T14:31:07.759Z,18.71
2022-10-13T14:33:36.826Z,18.74
2022-10-13T14:36:08.302Z,18.79
2022-10-13T14:38:38.704Z,18.96
2022-10-13T14:41:07.911Z,18.95
2022-10-13T14:43:36.577Z,18.92
2022-10-13T14:46:06.551Z,18.77
2022-10-13T14:48:36.440Z,18.68
2022-10-13T14:51:07.559Z,18.66
2022-10-13T14:53:36.361Z,18.54
2022-10-13T14:56:05.383Z,18.50
2022-10-13T14:58:35.573Z,18.49
2022-10-13T15:01:04.546Z,18.40
2022-10-13T15:03:33.072Z,18.46
2022-10-13T15:06:01.087Z,18.42
2022-10-13T15:08:31.823Z,18.53
2022-10-13T15:11:00.832Z,18.43
2022-10-13T15:13:28.980Z,18.38
2022-10-13T15:16:00.948Z,18.45
2022-10-13T15:18:29.589Z,18.32
2022-10-13T15:20:58.318Z,18.21
2022-10-13T15:23:26.969Z,18.15
2022-10-13T15:25:58.015Z,18.15
2022-10-13T15:28:27.586Z,18.02
2022-10-13T15:30:55.791Z,17.94
2022-10-13T15:33:23.960Z,17.89
2022-10-13T15:35:52.873Z,17.74
2022-10-13T15:38:22.228Z,17.71
2022-10-13T15:40:50.961Z,17.63
2022-10-13T15:43:20.695Z,17.56
2022-10-13T15:45:55.904Z,17.49
2022-10-13T15:48:24.285Z,17.51
2022-10-13T15:50:52.354Z,17.45
2022-10-13T15:53:20.803Z,17.42
2022-10-13T15:55:48.940Z,17.34
2022-10-13T15:58:17.341Z,17.27
2022-10-13T16:00:46.810Z,17.17
2022-10-13T16:03:16.422Z,17.15
2022-10-13T16:05:45.162Z,17.18
2022-10-13T16:08:13.510Z,17.07
2022-10-13T16:10:42.328Z,17.01
2022-10-13T16:13:14.047Z,16.97
2022-10-13T16:15:42.109Z,16.95
2022-10-13T16:18:11.474Z,16.92
2022-10-13T16:20:45.160Z,16.81
2022-10-13T16:23:13.155Z,16.79
2022-10-13T16:25:41.129Z,16.84
2022-10-13T16:28:09.148Z,16.84
2022-10-13T16:30:38.250Z,16.72
2022-10-13T16:33:06.230Z,16.74
2022-10-13T16:35:35.524Z,16.77
2022-10-13T16:38:03.526Z,16.76
2022-10-13T16:40:32.409Z,16.65
2022-10-13T16:43:00.362Z,16.64
2022-10-13T16:45:47.921Z,16.59
2022-10-13T16:48:16.392Z,16.47
2022-10-13T16:50:46.162Z,16.46
2022-10-13T16:53:14.317Z,16.43
2022-10-13T16:55:42.519Z,16.39
2022-10-13T16:58:10.945Z,16.25
2022-10-13T17:00:39.873Z,16.26
2022-10-13T17:03:08.300Z,16.15
2022-10-13T17:05:36.265Z,16.10
2022-10-13T17:08:05.845Z,16.00
2022-10-13T17:10:34.301Z,15.91
2022-10-13T17:13:02.538Z,15.94
2022-10-13T17:15:33.156Z,15.78
2022-10-13T17:18:01.141Z,15.74
2022-10-13T17:20:29.057Z,15.68
2022-10-13T17:22:57.065Z,15.67
2022-10-13T17:25:26.364Z,15.63
2022-10-13T17:27:54.486Z,15.57
2022-10-13T17:30:22.818Z,15.37
2022-10-13T17:32:50.703Z,15.44
2022-10-13T17:35:18.830Z,15.40
2022-10-13T17:37:49.932Z,15.30
2022-10-13T17:40:19.249Z,15.31
2022-10-13T17:42:48.685Z,15.34
2022-10-13T17:45:17.152Z,15.28
2022-10-13T17:47:48.771Z,15.35
2022-10-13T17:50:16.974Z,15.38
2022-10-13T17:52:44.969Z,15.40
2022-10-13T17:55:13.169Z,15.37
2022-10-13T17:57:41.276Z,15.43
2022-10-13T18:00:12.375Z,15.37
2022-10-13T18:02:43.160Z,15.33
2022-10-13T18:05:11.203Z,15.34
2022-10-13T18:07:39.249Z,15.31
2022-10-13T18:10:08.166Z,15.33
2022-10-13T18:12:36.337Z,15.33
2022-10-13T18:15:04.701Z,15.43
2022-10-13T18:17:34.039Z,15.49
2022-10-13T18:20:02.044Z,15.58
2022-10-13T18:22:30.199Z,15.49
2022-10-13T18:25:00.068Z,15.61
2022-10-13T18:27:28.118Z,15.61
2022-10-13T18:29:56.086Z,15.72
2022-10-13T18:32:24.330Z,15.67
2022-10-13T18:34:56.152Z,15.62
2022-10-13T18:37:24.210Z,15.73
2022-10-13T18:39:52.129Z,15.74
2022-10-13T18:42:20.175Z,15.71
2022-10-13T18:44:48.136Z,15.59
2022-10-13T18:47:16.068Z,15.65
2022-10-13T18:49:44.008Z,15.50
2022-10-13T18:52:13.575Z,15.58
2022-10-13T18:54:41.692Z,15.56
2022-10-13T18:57:09.601Z,15.55
2022-10-13T18:59:38.677Z,15.52
2022-10-13T19:02:19.155Z,15.42
2022-10-13T19:04:48.962Z,15.43
2022-10-13T19:07:18.667Z,15.23
2022-10-13T19:09:46.877Z,15.38
2022-10-13T19:12:15.070Z,15.39
2022-10-13T19:14:44.555Z,15.40
2022-10-13T19:17:12.515Z,15.36
2022-10-13T19:19:41.456Z,15.31
2022-10-13T19:22:10.082Z,15.28
2022-10-13T19:24:39.599Z,15.28
2022-10-13T19:27:07.671Z,15.19
2022-10-13T19:29:37.355Z,15.03
2022-10-13T19:32:05.917Z,15.31
2022-10-13T19:34:33.989Z,15.19
2022-10-13T19:37:03.529Z,15.17
2022-10-13T19:39:31.547Z,15.18
2022-10-13T19:42:01.027Z,15.16
2022-10-13T19:44:29.093Z,15.06
2022-10-13T19:46:57.089Z,15.07
2022-10-13T19:49:26.412Z,14.89
2022-10-13T19:51:54.904Z,14.73
2022-10-13T19:54:23.676Z,14.72
2022-10-13T19:56:51.838Z,14.64
2022-10-13T19:59:21.326Z,14.45
2022-10-13T20:01:49.473Z,14.62
2022-10-13T20:04:20.496Z,14.63
2022-10-13T20:06:49.191Z,14.56
2022-10-13T20:09:17.618Z,14.53
2022-10-13T20:11:46.488Z,14.52
2022-10-13T20:14:15.069Z,14.50
2022-10-13T20:16:44.949Z,14.55
2022-10-13T20:19:14.431Z,14.56
2022-10-13T20:21:43.028Z,14.52
2022-10-13T20:24:12.230Z,14.39
2022-10-13T20:26:40.849Z,14.45
2022-10-13T20:29:09.015Z,14.33
2022-10-13T20:31:37.158Z,14.33
2022-10-13T20:34:06.612Z,14.30
2022-10-13T20:36:38.519Z,14.18
2022-10-13T20:39:07.649Z,14.27
2022-10-13T20:41:38.343Z,14.26
2022-10-13T20:44:10.326Z,14.31
2022-10-13T20:46:38.337Z,14.33
2022-10-13T20:49:12.247Z,14.31
2022-10-13T20:51:42.548Z,14.26
2022-10-13T20:54:11.316Z,14.24
2022-10-13T20:56:39.891Z,14.20
2022-10-13T20:59:09.981Z,14.27
2022-10-13T21:01:38.246Z,14.25
2022-10-13T21:04:07.689Z,14.19
2022-10-13T21:06:36.056Z,14.19
2022-10-13T21:09:05.720Z,14.17
2022-10-13T21:11:34.196Z,14.18
2022-10-13T21:14:06.208Z,14.14
2022-10-13T21:16:34.768Z,14.16
2022-10-13T21:19:03.583Z,14.07
2022-10-13T21:21:34.600Z,14.12
2022-10-13T21:24:05.651Z,14.09
2022-10-13T21:26:34.835Z,14.07
2022-10-13T21:29:03.719Z,14.06
2022-10-13T21:31:32.670Z,14.06
2022-10-13T21:34:00.815Z,14.02
2022-10-13T21:36:30.343Z,14.02
2022-10-13T21:39:01.115Z,14.01
2022-10-13T21:41:29.698Z,14.00
2022-10-13T21:43:58.473Z,13.97
2022-10-13T21:46:32.902Z,13.97
2022-10-13T21:49:02.562Z,13.99
2022-10-13T21:51:32.507Z,14.07
2022-10-13T21:54:03.911Z,14.05
2022-10-13T21:56:32.806Z,14.08
2022-10-13T21:59:01.672Z,14.06
2022-10-13T22:01:30.190Z,14.08
2022-10-13T22:04:02.401Z,14.07
2022-10-13T22:06:32.238Z,14.10
2022-10-13T22:09:03.467Z,14.02
2022-10-13T22:11:33.740Z,14.07
2022-10-13T22:14:07.832Z,14.07
2022-10-13T22:16:38.844Z,14.09
2022-10-13T22:19:07.138Z,14.06
2022-10-13T22:21:40.654Z,14.07
2022-10-13T22:24:13.266Z,14.11
2022-10-13T22:26:42.549Z,14.05
2022-10-13T22:29:13.040Z,14.05
2022-10-13T22:31:41.910Z,14.05
2022-10-13T22:34:12.816Z,14.09
2022-10-13T22:36:44.420Z,14.06
2022-10-13T22:39:15.024Z,13.98
2022-10-13T22:41:43.221Z,13.97
2022-10-13T22:44:11.427Z,13.95
2022-10-13T22:46:39.883Z,13.94
2022-10-13T22:49:13.302Z,13.95
2022-10-13T22:51:41.503Z,13.87
2022-10-13T22:54:10.606Z,13.88
2022-10-13T22:56:41.776Z,13.81
2022-10-13T22:59:10.344Z,13.78
2022-10-13T23:01:38.326Z,13.79
2022-10-13T23:04:06.845Z,13.78
2022-10-13T23:06:36.316Z,13.72
2022-10-13T23:09:09.170Z,13.66
2022-10-13T23:11:39.016Z,13.70
2022-10-13T23:14:09.205Z,13.64
2022-10-13T23:16:37.256Z,13.66
2022-10-13T23:19:05.496Z,13.57
2022-10-13T23:21:33.537Z,13.54
2022-10-13T23:24:03.032Z,13.57
2022-10-13T23:26:31.972Z,13.58
2022-10-13T23:29:01.757Z,13.63
2022-10-13T23:31:30.068Z,13.61
2022-10-13T23:33:58.757Z,13.58
2022-10-13T23:36:30.185Z,13.60
2022-10-13T23:39:00.783Z,13.66
2022-10-13T23:41:29.321Z,13.69
2022-10-13T23:43:57.747Z,13.63
2022-10-13T23:46:27.757Z,13.66
2022-10-13T23:48:55.889Z,13.62
2022-10-13T23:51:25.873Z,13.68
2022-10-13T23:53:54.284Z,13.72
2022-10-13T23:56:22.660Z,13.74
2022-10-13T23:58:51.550Z,13.83
